Time;durP1;ratioP1;P1;durP2;ratioP2;P2;SDS_P1;SDS_P2;PMS_P1;PMS_P2;Temp;Humidity;BMP_temperature;BMP_pressure;BME280_temperature;BME280_humidity;BME280_pressure;Samples;Min_cycle;Max_cycle;Signal;HPM_P1;HPM_P2
2022/02/06 00:01:49;;;;;;;12.80;4.80;;;4.20;99.90;;;;;;5049692;28;20281;-69
2022/02/06 00:04:17;;;;;;;15.60;4.80;;;4.20;99.90;;;;;;5037041;28;20645;-67
2022/02/06 00:06:45;;;;;;;12.87;5.17;;;4.10;99.90;;;;;;5042113;28;20237;-69
2022/02/06 00:09:12;;;;;;;10.80;5.20;;;4.20;99.90;;;;;;5050441;28;20202;-67
2022/02/06 00:11:39;;;;;;;12.17;5.73;;;4.20;99.90;;;;;;5048046;28;20296;-68
2022/02/06 00:14:06;;;;;;;11.50;4.97;;;4.20;99.90;;;;;;5050828;28;20236;-69
2022/02/06 00:16:33;;;;;;;9.73;5.10;;;4.20;99.90;;;;;;5049186;28;20580;-68
2022/02/06 00:19:00;;;;;;;12.27;5.57;;;4.20;99.90;;;;;;5050228;28;20212;-68
2022/02/06 00:21:30;;;;;;;9.50;4.33;;;4.20;99.90;;;;;;5049827;28;20206;-67
2022/02/06 00:24:00;;;;;;;7.83;4.90;;;4.10;99.90;;;;;;5050416;28;20745;-68
2022/02/06 00:26:34;;;;;;;11.33;4.90;;;4.10;99.90;;;;;;5044164;28;20206;-68
2022/02/06 00:29:15;;;;;;;11.57;5.23;;;4.10;99.90;;;;;;5044945;28;20643;-67
2022/02/06 00:31:53;;;;;;;7.30;4.60;;;4.10;99.90;;;;;;5049815;28;20213;-68
2022/02/06 00:39:58;;;;;;;6.77;4.53;;;4.10;99.90;;;;;;5039060;28;20278;-68
2022/02/06 00:42:25;;;;;;;9.90;4.97;;;4.10;99.90;;;;;;5049844;28;20217;-67
2022/02/06 00:44:53;;;;;;;8.60;4.73;;;4.10;99.90;;;;;;5049349;28;20206;-68
2022/02/06 00:47:20;;;;;;;10.43;4.30;;;4.10;99.90;;;;;;5047234;28;20650;-67
2022/02/06 00:49:47;;;;;;;11.03;5.10;;;4.10;99.90;;;;;;5049283;28;20212;-69
2022/02/06 00:52:21;;;;;;;10.27;4.90;;;4.10;99.90;;;;;;5048152;28;20226;-67
2022/02/06 00:54:47;;;;;;;9.53;4.47;;;4.10;99.90;;;;;;5049657;28;20228;-67
2022/02/06 00:57:16;;;;;;;9.93;4.70;;;4.10;99.90;;;;;;5048866;28;20252;-68
2022/02/06 00:59:43;;;;;;;8.03;4.20;;;4.10;99.90;;;;;;5049521;28;20248;-68
2022/02/06 01:02:10;;;;;;;7.63;4.27;;;4.10;99.90;;;;;;5048980;28;20221;-68
2022/02/06 01:04:37;;;;;;;12.37;4.57;;;4.10;99.90;;;;;;5049333;28;20210;-67
2022/02/06 01:07:04;;;;;;;12.70;5.07;;;4.10;99.90;;;;;;5048674;28;20703;-69
2022/02/06 01:09:31;;;;;;;7.17;4.50;;;4.10;99.90;;;;;;5048977;28;20206;-68
2022/02/06 01:11:58;;;;;;;6.93;4.43;;;4.10;99.90;;;;;;5049717;28;20230;-67
2022/02/06 01:14:40;;;;;;;12.00;5.10;;;4.10;99.90;;;;;;5049023;28;20206;-68
2022/02/06 01:17:19;;;;;;;8.50;4.50;;;4.10;99.90;;;;;;5045763;28;20205;-67
2022/02/06 01:19:56;;;;;;;8.40;4.67;;;4.10;99.90;;;;;;5049831;28;20570;-68
2022/02/06 01:22:26;;;;;;;10.97;5.10;;;4.10;99.90;;;;;;5048373;28;20197;-68
2022/02/06 01:25:01;;;;;;;14.07;4.93;;;4.10;99.90;;;;;;5049305;28;20197;-68
2022/02/06 01:27:37;;;;;;;7.20;3.97;;;4.10;99.90;;;;;;5051849;28;20286;-68
2022/02/06 01:30:17;;;;;;;8.07;4.47;;;4.10;99.90;;;;;;5052464;28;20197;-68
2022/02/06 01:32:52;;;;;;;9.53;3.77;;;4.10;99.90;;;;;;5052410;28;20656;-68
2022/02/06 01:35:27;;;;;;;7.77;4.10;;;4.10;99.90;;;;;;5053129;28;20693;-69
2022/02/06 01:38:04;;;;;;;6.43;4.10;;;4.10;99.90;;;;;;5052709;28;20198;-68
2022/02/06 01:40:39;;;;;;;8.50;4.83;;;4.20;99.90;;;;;;5052818;28;20655;-70
2022/02/06 01:43:10;;;;;;;12.37;4.93;;;4.10;99.90;;;;;;5053246;28;20244;-69
2022/02/06 02:02:32;;;;;;;7.40;4.90;;;4.10;99.90;;;;;;5117308;27;20199;-70
2022/02/06 02:05:32;;;;;;;12.20;5.83;;;4.00;99.90;;;;;;5112635;27;20207;-71
2022/02/06 02:13:54;;;;;;;8.40;4.30;;;3.90;99.90;;;;;;5121006;27;20547;-69
2022/02/06 02:16:46;;;;;;;9.37;4.63;;;3.90;99.90;;;;;;5108064;28;20210;-69
2022/02/06 02:27:37;;;;;;;9.67;4.37;;;3.90;99.90;;;;;;5109514;28;20199;-69
2022/02/06 02:44:28;;;;;;;10.27;4.03;;;3.80;99.90;;;;;;5113232;28;20199;-69
2022/02/06 02:46:53;;;;;;;8.30;3.77;;;3.80;99.90;;;;;;5125904;28;20207;-68
2022/02/06 02:49:23;;;;;;;7.97;3.80;;;3.80;99.90;;;;;;5118478;28;20328;-69
2022/02/06 02:51:56;;;;;;;5.50;4.00;;;3.80;99.90;;;;;;5117082;27;20795;-69
2022/02/06 02:54:27;;;;;;;8.53;4.10;;;3.90;99.90;;;;;;5108936;28;20673;-69
2022/02/06 02:57:04;;;;;;;6.40;3.57;;;3.80;99.90;;;;;;5107961;28;20590;-68
2022/02/06 02:59:41;;;;;;;8.67;4.83;;;3.80;99.90;;;;;;5087028;28;20292;-69
2022/02/06 03:02:08;;;;;;;8.17;3.43;;;3.80;99.90;;;;;;5087965;28;20283;-69
2022/02/06 03:04:35;;;;;;;12.37;4.17;;;3.80;99.90;;;;;;5088038;28;20211;-68
2022/02/06 03:07:04;;;;;;;6.07;3.97;;;3.80;99.90;;;;;;5099856;28;20199;-68
2022/02/06 03:09:38;;;;;;;7.77;4.07;;;3.80;99.90;;;;;;5087560;28;20220;-69
2022/02/06 03:12:06;;;;;;;7.03;3.90;;;3.80;99.90;;;;;;5087962;28;20286;-69
2022/02/06 03:14:42;;;;;;;8.73;3.80;;;3.80;99.90;;;;;;5078871;28;20215;-69
2022/02/06 03:17:11;;;;;;;7.57;3.70;;;3.80;99.90;;;;;;5087805;28;20247;-69
2022/02/06 03:19:41;;;;;;;7.00;3.57;;;3.80;99.90;;;;;;5073994;28;20200;-69
2022/02/06 03:22:08;;;;;;;5.53;3.60;;;3.80;99.90;;;;;;5088272;28;20690;-70
2022/02/06 03:24:42;;;;;;;6.20;3.57;;;3.80;99.90;;;;;;5076890;28;20213;-70
2022/02/06 03:27:09;;;;;;;7.20;3.90;;;3.80;99.90;;;;;;5074605;28;20205;-69
2022/02/06 03:29:35;;;;;;;6.87;3.53;;;3.80;99.90;;;;;;5070858;28;20282;-68
2022/02/06 03:32:02;;;;;;;6.37;3.53;;;3.70;99.90;;;;;;5073825;28;20229;-70
2022/02/06 03:34:29;;;;;;;6.80;3.50;;;3.70;99.90;;;;;;5074198;28;20213;-69
2022/02/06 03:36:56;;;;;;;5.00;3.47;;;3.70;99.90;;;;;;5075022;28;20650;-70
2022/02/06 03:39:24;;;;;;;7.60;3.60;;;3.70;99.90;;;;;;5074190;28;20209;-69
2022/02/06 03:42:07;;;;;;;7.33;4.50;;;3.70;99.90;;;;;;5073904;28;20637;-69
2022/02/06 03:44:40;;;;;;;8.90;3.87;;;3.60;99.90;;;;;;5074239;28;20205;-67
2022/02/06 03:47:12;;;;;;;5.97;3.77;;;3.60;99.90;;;;;;5074560;28;20932;-69
2022/02/06 03:49:54;;;;;;;5.57;3.63;;;3.60;99.90;;;;;;5065721;28;20686;-69
2022/02/06 03:52:24;;;;;;;6.03;3.10;;;3.70;99.90;;;;;;5073136;28;20236;-69
2022/02/06 03:54:51;;;;;;;5.20;3.50;;;3.60;99.90;;;;;;5073308;28;20644;-70
2022/02/06 03:57:19;;;;;;;5.57;3.33;;;3.60;99.90;;;;;;5074091;28;20312;-69
2022/02/06 03:59:46;;;;;;;7.13;3.90;;;3.70;99.90;;;;;;5074814;28;20646;-69
2022/02/06 04:02:13;;;;;;;6.77;3.80;;;3.70;99.90;;;;;;5073909;28;20666;-69
2022/02/06 04:04:40;;;;;;;7.17;3.90;;;3.70;99.90;;;;;;5074597;28;20213;-69
2022/02/06 04:07:10;;;;;;;7.20;3.57;;;3.60;99.90;;;;;;5074824;28;20203;-69
2022/02/06 04:09:42;;;;;;;8.17;3.70;;;3.60;99.90;;;;;;5073302;28;20622;-68
2022/02/06 04:12:11;;;;;;;7.30;3.90;;;3.50;99.90;;;;;;5074138;28;20241;-68
2022/02/06 04:14:53;;;;;;;8.87;4.10;;;3.60;99.90;;;;;;5075910;28;20658;-69
2022/02/06 04:17:23;;;;;;;6.07;3.80;;;3.60;99.90;;;;;;5073998;28;20202;-69
2022/02/06 04:19:51;;;;;;;7.00;4.43;;;3.60;99.90;;;;;;5086010;28;20217;-69
2022/02/06 04:22:18;;;;;;;8.80;4.70;;;3.40;99.90;;;;;;5073303;28;20232;-69
2022/02/06 04:24:45;;;;;;;6.83;3.83;;;3.60;99.90;;;;;;5073153;28;20209;-70
2022/02/06 04:27:12;;;;;;;8.53;4.70;;;3.60;99.90;;;;;;5076187;28;20693;-68
2022/02/06 04:29:40;;;;;;;7.77;4.60;;;3.50;99.90;;;;;;5071797;28;20201;-68
2022/02/06 04:32:08;;;;;;;5.83;3.47;;;3.50;99.90;;;;;;5073115;28;20228;-70
2022/02/06 04:34:35;;;;;;;5.77;3.80;;;3.50;99.90;;;;;;5072009;28;20670;-69
2022/02/06 04:37:08;;;;;;;8.57;3.80;;;3.50;99.90;;;;;;5072277;28;20212;-70
2022/02/06 04:42:26;;;;;;;5.77;3.77;;;3.50;99.90;;;;;;5063085;28;20199;-69
2022/02/06 04:48:16;;;;;;;6.63;3.70;;;3.50;99.90;;;;;;5050198;28;20217;-70
2022/02/06 05:26:59;;;;;;;5.43;3.63;;;3.50;99.90;;;;;;4997681;28;20211;-70
2022/02/06 05:29:34;;;;;;;6.57;3.57;;;3.50;99.90;;;;;;5044611;28;20221;-69
2022/02/06 05:32:14;;;;;;;5.90;3.23;;;3.50;99.90;;;;;;5078184;28;20244;-70
2022/02/06 05:34:43;;;;;;;4.40;3.10;;;3.50;99.90;;;;;;5072100;28;20296;-69
2022/02/06 05:37:10;;;;;;;5.70;3.17;;;3.50;99.90;;;;;;5075443;28;20266;-69
2022/02/06 05:39:36;;;;;;;6.87;3.20;;;3.50;99.90;;;;;;5072803;28;20197;-69
2022/02/06 05:42:04;;;;;;;4.77;2.63;;;3.50;99.90;;;;;;5074922;28;20312;-69
2022/02/06 05:44:31;;;;;;;4.90;2.97;;;3.50;99.90;;;;;;5072736;28;20205;-69
2022/02/06 05:46:58;;;;;;;4.87;2.50;;;3.50;99.90;;;;;;5074382;28;20205;-69
2022/02/06 05:49:25;;;;;;;6.07;2.73;;;3.50;99.90;;;;;;5071629;28;20287;-69
2022/02/06 05:51:53;;;;;;;5.37;2.30;;;3.60;99.90;;;;;;5071755;28;20219;-69
2022/02/06 05:54:20;;;;;;;5.33;3.20;;;3.60;99.90;;;;;;5071770;28;20230;-69
2022/02/06 05:56:47;;;;;;;3.23;2.50;;;3.60;99.90;;;;;;5072373;28;20697;-69
2022/02/06 05:59:13;;;;;;;5.17;2.30;;;3.60;99.90;;;;;;5071458;28;20203;-68
2022/02/06 06:01:40;;;;;;;3.67;2.83;;;3.70;99.90;;;;;;5066563;28;20319;-69
2022/02/06 06:04:07;;;;;;;4.17;2.20;;;3.70;99.90;;;;;;5075096;28;20208;-69
2022/02/06 06:06:36;;;;;;;4.43;2.70;;;3.70;99.90;;;;;;5071796;28;20236;-69
2022/02/06 06:09:05;;;;;;;7.47;2.90;;;3.70;99.90;;;;;;5073342;28;20201;-70
2022/02/06 06:11:32;;;;;;;4.63;2.50;;;3.70;99.90;;;;;;5077494;28;20938;-69
2022/02/06 06:13:59;;;;;;;6.07;3.17;;;3.70;99.90;;;;;;5071668;28;20305;-69
2022/02/06 06:16:26;;;;;;;3.20;2.40;;;3.70;99.90;;;;;;5073079;28;20209;-69
2022/02/06 06:18:52;;;;;;;6.03;2.67;;;3.80;99.90;;;;;;5077363;28;20215;-69
2022/02/06 06:21:22;;;;;;;5.13;2.87;;;3.80;99.90;;;;;;5080122;28;20453;-68
2022/02/06 06:23:50;;;;;;;6.77;3.10;;;3.70;99.90;;;;;;5072436;28;20205;-69
2022/02/06 06:26:20;;;;;;;4.47;2.33;;;3.70;99.90;;;;;;5072378;28;20201;-69
2022/02/06 06:28:47;;;;;;;6.27;2.53;;;3.70;99.90;;;;;;5065572;28;20205;-68
2022/02/06 06:31:14;;;;;;;4.90;2.77;;;3.70;99.90;;;;;;5071849;28;20205;-69
2022/02/06 06:33:41;;;;;;;4.13;2.43;;;3.70;99.90;;;;;;5072039;28;20702;-69
2022/02/06 06:36:08;;;;;;;6.03;3.23;;;3.70;99.90;;;;;;5078299;28;20215;-68
2022/02/06 06:38:36;;;;;;;4.97;2.90;;;3.70;99.90;;;;;;5077790;28;20205;-69
2022/02/06 06:41:04;;;;;;;4.27;2.67;;;3.70;99.90;;;;;;5076157;28;20211;-69
2022/02/06 06:43:32;;;;;;;4.73;2.77;;;3.70;99.90;;;;;;5071577;28;20309;-68
2022/02/06 06:45:59;;;;;;;5.13;2.93;;;3.70;99.90;;;;;;5075866;28;20201;-70
2022/02/06 06:48:26;;;;;;;4.80;2.90;;;3.70;99.90;;;;;;5077320;28;20209;-69
2022/02/06 06:50:53;;;;;;;7.47;3.37;;;3.70;99.90;;;;;;5072416;28;20272;-69
2022/02/06 06:53:20;;;;;;;5.30;2.87;;;3.70;99.90;;;;;;5071796;28;20745;-69
2022/02/06 06:55:54;;;;;;;5.13;2.60;;;3.70;99.90;;;;;;5080821;28;20251;-69
2022/02/06 06:58:27;;;;;;;3.67;2.70;;;3.80;99.90;;;;;;5077532;28;20208;-69
2022/02/06 07:01:09;;;;;;;3.67;2.53;;;3.80;99.90;;;;;;5075807;28;20200;-69
2022/02/06 07:03:36;;;;;;;6.20;2.90;;;3.80;99.90;;;;;;5075102;28;20728;-69
2022/02/06 07:06:04;;;;;;;5.17;2.83;;;3.90;99.90;;;;;;5078220;28;20208;-69
2022/02/06 07:08:30;;;;;;;3.83;2.70;;;3.80;99.90;;;;;;5081364;28;20205;-68
2022/02/06 07:10:57;;;;;;;6.13;2.57;;;3.90;99.90;;;;;;5073422;28;20574;-68
2022/02/06 07:13:24;;;;;;;5.50;2.83;;;4.10;99.90;;;;;;5066122;28;20236;-68
2022/02/06 07:15:53;;;;;;;5.53;2.77;;;4.10;99.90;;;;;;5073455;28;20276;-68
2022/02/06 07:18:21;;;;;;;7.90;2.70;;;4.10;99.90;;;;;;5075942;28;20523;-68
2022/02/06 07:20:49;;;;;;;6.63;2.70;;;4.20;99.90;;;;;;5072504;28;20205;-69
2022/02/06 07:23:16;;;;;;;6.53;2.80;;;4.20;99.90;;;;;;5072871;28;20297;-71
2022/02/06 07:25:47;;;;;;;3.50;2.40;;;4.30;99.90;;;;;;5078247;28;20225;-71
2022/02/06 07:28:17;;;;;;;5.53;2.63;;;4.30;99.90;;;;;;5078290;28;20200;-72
2022/02/06 07:30:45;;;;;;;6.83;2.90;;;4.30;99.90;;;;;;5076700;28;20220;-70
2022/02/06 07:33:13;;;;;;;3.90;2.47;;;4.30;99.90;;;;;;5081900;28;20225;-71
2022/02/06 07:35:42;;;;;;;6.93;3.10;;;4.30;99.90;;;;;;5074610;28;20288;-73
2022/02/06 07:38:10;;;;;;;4.93;2.37;;;4.30;99.90;;;;;;5078149;28;20215;-73
2022/02/06 07:40:37;;;;;;;3.60;2.10;;;4.30;99.90;;;;;;5083395;28;20204;-72
2022/02/06 07:43:04;;;;;;;5.93;3.43;;;4.20;99.90;;;;;;5081162;28;20583;-72
2022/02/06 07:45:34;;;;;;;7.57;2.93;;;4.20;99.90;;;;;;5085028;28;20240;-73
2022/02/06 07:48:03;;;;;;;4.63;2.40;;;4.20;99.90;;;;;;5075112;28;20262;-72
2022/02/06 07:50:30;;;;;;;5.93;2.80;;;4.20;99.90;;;;;;5079848;28;20208;-74
2022/02/06 07:52:59;;;;;;;8.90;3.07;;;4.20;99.90;;;;;;5076976;28;20301;-75
2022/02/06 07:55:25;;;;;;;3.77;2.70;;;4.20;99.90;;;;;;5077799;28;20992;-73
2022/02/06 07:57:52;;;;;;;4.53;2.30;;;4.20;99.90;;;;;;5083125;28;20320;-71
2022/02/06 08:00:20;;;;;;;3.13;2.50;;;4.30;99.90;;;;;;5074940;28;20204;-72
2022/02/06 08:02:47;;;;;;;3.93;2.43;;;4.20;99.90;;;;;;5075288;28;20208;-72
2022/02/06 08:05:17;;;;;;;4.53;2.40;;;4.20;99.90;;;;;;5066652;28;20662;-72
2022/02/06 08:07:46;;;;;;;2.47;2.13;;;4.20;99.90;;;;;;5075152;28;20261;-73
2022/02/06 08:10:15;;;;;;;3.60;2.67;;;4.20;99.90;;;;;;5076983;28;20197;-73
2022/02/06 08:12:51;;;;;;;3.13;2.40;;;4.20;99.90;;;;;;5073220;28;20302;-74
2022/02/06 08:15:18;;;;;;;3.63;2.47;;;4.20;99.90;;;;;;5077715;28;20232;-74
2022/02/06 08:17:45;;;;;;;5.07;2.40;;;4.30;99.90;;;;;;5076001;28;20291;-72
2022/02/06 08:20:13;;;;;;;5.17;2.60;;;4.30;99.90;;;;;;5077416;28;20201;-72
2022/02/06 08:22:41;;;;;;;4.07;2.37;;;4.30;99.90;;;;;;5077798;28;20295;-74
2022/02/06 08:25:10;;;;;;;5.80;2.57;;;4.40;99.90;;;;;;5077654;28;20213;-72
2022/02/06 08:27:39;;;;;;;3.37;2.63;;;4.40;99.90;;;;;;5085572;28;20212;-74
2022/02/06 08:30:08;;;;;;;6.77;2.57;;;4.50;99.90;;;;;;5072426;28;20755;-74
2022/02/06 08:32:35;;;;;;;4.33;2.47;;;4.50;99.90;;;;;;5073763;28;20616;-76
2022/02/06 08:35:02;;;;;;;4.30;2.70;;;4.50;99.90;;;;;;5074014;28;20320;-71
2022/02/06 08:37:29;;;;;;;3.80;2.80;;;4.60;99.90;;;;;;5070240;28;20233;-74
2022/02/06 08:39:56;;;;;;;4.07;2.10;;;4.60;99.90;;;;;;5075074;28;20670;-75
2022/02/06 08:42:23;;;;;;;4.13;2.63;;;4.60;99.90;;;;;;5079104;28;20221;-73
2022/02/06 08:44:51;;;;;;;5.13;3.00;;;4.60;99.90;;;;;;5075818;28;20674;-74
2022/02/06 08:47:19;;;;;;;3.23;2.40;;;4.60;99.90;;;;;;5073110;28;20225;-73
2022/02/06 08:49:47;;;;;;;6.10;2.83;;;4.70;99.90;;;;;;5075339;28;20709;-75
2022/02/06 08:52:15;;;;;;;4.73;2.60;;;4.70;99.90;;;;;;5074269;28;20236;-70
2022/02/06 08:54:44;;;;;;;5.00;2.40;;;4.70;99.90;;;;;;5075391;28;20699;-72
2022/02/06 08:57:20;;;;;;;6.13;3.10;;;4.70;99.90;;;;;;5074387;28;20229;-73
2022/02/06 08:59:47;;;;;;;2.67;2.13;;;4.70;99.90;;;;;;5072066;28;20284;-70
2022/02/06 09:02:15;;;;;;;3.37;2.30;;;4.70;99.90;;;;;;5082967;28;20296;-74
2022/02/06 09:04:43;;;;;;;5.33;2.43;;;4.70;99.90;;;;;;5076378;28;20223;-72
2022/02/06 09:07:11;;;;;;;4.03;2.63;;;4.70;99.90;;;;;;5075951;28;20206;-74
2022/02/06 09:09:42;;;;;;;4.03;2.30;;;4.60;99.90;;;;;;5074527;28;20213;-72
2022/02/06 09:12:11;;;;;;;4.87;2.47;;;4.50;99.90;;;;;;5078785;28;20286;-73
2022/02/06 09:14:38;;;;;;;3.57;2.60;;;4.70;99.90;;;;;;5082679;28;20298;-75
2022/02/06 09:17:06;;;;;;;3.97;2.47;;;4.70;99.90;;;;;;5075604;28;20330;-75
2022/02/06 09:19:47;;;;;;;4.10;2.20;;;4.70;99.90;;;;;;5084346;28;20235;-73
2022/02/06 09:22:14;;;;;;;4.13;2.40;;;4.70;99.90;;;;;;5078666;28;20258;-71
2022/02/06 09:24:43;;;;;;;3.40;2.07;;;4.70;99.90;;;;;;5077091;28;20205;-74
2022/02/06 09:27:10;;;;;;;2.47;2.27;;;4.70;99.90;;;;;;5079168;28;20205;-74
2022/02/06 09:29:40;;;;;;;5.17;2.60;;;3.90;99.90;;;;;;5077525;28;20288;-75
2022/02/06 09:37:04;;;;;;;4.60;2.97;;;4.80;99.90;;;;;;5076750;28;20217;-75
2022/02/06 09:39:37;;;;;;;2.83;2.10;;;4.80;99.90;;;;;;5075624;28;20209;-74
2022/02/06 09:42:05;;;;;;;4.10;2.37;;;4.80;99.90;;;;;;5080863;28;20251;-73
2022/02/06 09:44:32;;;;;;;5.73;2.83;;;4.80;99.90;;;;;;5078804;28;20209;-72
2022/02/06 09:47:00;;;;;;;3.57;2.47;;;4.80;99.90;;;;;;5074624;28;20288;-73
2022/02/06 09:49:29;;;;;;;3.13;2.33;;;4.80;99.90;;;;;;5070801;28;20210;-73
2022/02/06 09:51:58;;;;;;;4.00;2.90;;;4.90;99.90;;;;;;5080287;28;20236;-73
2022/02/06 09:54:27;;;;;;;3.37;2.40;;;4.90;99.90;;;;;;5075008;28;20225;-73
2022/02/06 09:56:58;;;;;;;3.57;2.07;;;4.90;99.90;;;;;;5081948;28;20231;-74
2022/02/06 09:59:27;;;;;;;4.83;2.50;;;4.90;99.90;;;;;;5074875;28;20212;-74
2022/02/06 10:01:56;;;;;;;2.97;2.00;;;5.00;99.90;;;;;;5074298;28;20205;-73
2022/02/06 10:04:24;;;;;;;4.23;2.43;;;5.00;99.90;;;;;;5066027;28;20626;-74
2022/02/06 10:07:02;;;;;;;2.53;1.90;;;5.00;99.90;;;;;;5073326;28;20196;-72
2022/02/06 10:09:33;;;;;;;2.63;2.00;;;5.00;99.90;;;;;;5071000;28;20195;-71
2022/02/06 10:12:02;;;;;;;3.23;2.20;;;5.00;99.90;;;;;;5073685;28;20236;-72
2022/02/06 10:14:30;;;;;;;3.73;2.03;;;4.90;99.90;;;;;;5072582;28;20308;-73
2022/02/06 10:16:57;;;;;;;2.57;2.37;;;4.90;99.90;;;;;;5061123;28;20220;-71
2022/02/06 10:19:24;;;;;;;4.87;2.37;;;4.90;99.90;;;;;;5074764;28;20212;-73
2022/02/06 10:21:51;;;;;;;3.00;2.30;;;4.90;99.90;;;;;;5070707;28;20218;-72
2022/02/06 10:24:28;;;;;;;3.73;2.50;;;4.90;99.90;;;;;;5072557;28;20288;-73
2022/02/06 10:27:16;;;;;;;3.47;2.30;;;5.00;99.90;;;;;;5071694;28;20197;-72
2022/02/06 10:29:44;;;;;;;3.67;2.23;;;5.00;99.90;;;;;;5073657;28;20225;-73
2022/02/06 10:32:17;;;;;;;3.40;2.33;;;4.90;99.90;;;;;;5074325;28;20255;-73
2022/02/06 10:34:44;;;;;;;2.53;2.33;;;4.90;99.90;;;;;;5077549;28;20233;-73
2022/02/06 10:37:14;;;;;;;3.77;2.70;;;5.00;99.90;;;;;;5082459;28;20304;-72
2022/02/06 10:39:53;;;;;;;5.00;2.90;;;4.90;99.90;;;;;;5085023;28;20241;-72
2022/02/06 10:42:24;;;;;;;3.73;2.43;;;4.90;99.90;;;;;;5086128;28;20554;-73
2022/02/06 10:45:11;;;;;;;3.13;2.47;;;5.10;99.90;;;;;;5088329;28;20200;-73
2022/02/06 10:47:38;;;;;;;3.80;2.60;;;5.10;99.90;;;;;;5066238;28;20288;-73
2022/02/06 10:50:07;;;;;;;3.30;2.07;;;5.10;99.90;;;;;;5078271;28;20207;-72
2022/02/06 10:52:34;;;;;;;3.17;2.53;;;5.20;99.90;;;;;;5077484;28;20639;-72
2022/02/06 10:55:03;;;;;;;3.13;2.40;;;5.20;99.90;;;;;;5076402;28;20233;-72
2022/02/06 10:57:30;;;;;;;3.50;2.30;;;5.30;99.90;;;;;;5076693;28;20221;-73
2022/02/06 10:59:58;;;;;;;3.13;2.20;;;5.30;99.90;;;;;;5077445;28;20632;-72
2022/02/06 11:02:27;;;;;;;3.03;2.47;;;5.30;99.90;;;;;;5077981;28;20220;-73
2022/02/06 11:04:59;;;;;;;3.23;2.20;;;5.40;99.90;;;;;;5077297;28;20219;-73
2022/02/06 11:07:26;;;;;;;4.73;2.47;;;5.40;99.90;;;;;;5076297;28;20274;-73
2022/02/06 11:10:05;;;;;;;2.73;2.00;;;5.50;99.90;;;;;;5076360;28;20641;-72
2022/02/06 11:12:34;;;;;;;3.83;2.50;;;5.50;99.90;;;;;;5076483;28;20240;-74
2022/02/06 11:15:02;;;;;;;4.73;2.60;;;5.50;99.90;;;;;;5077351;28;20324;-73
2022/02/06 11:17:33;;;;;;;2.27;2.07;;;5.50;99.90;;;;;;5076106;28;20215;-72
2022/02/06 11:20:02;;;;;;;3.53;2.33;;;5.60;99.90;;;;;;5076673;28;20435;-72
2022/02/06 11:22:30;;;;;;;3.53;2.47;;;5.60;99.90;;;;;;5076458;28;20712;-73
2022/02/06 11:24:59;;;;;;;3.73;2.80;;;5.70;99.90;;;;;;5074468;28;20236;-72
2022/02/06 11:27:27;;;;;;;3.77;2.30;;;5.70;99.90;;;;;;5076173;28;20249;-72
2022/02/06 11:29:56;;;;;;;4.00;2.30;;;5.80;99.90;;;;;;5076870;28;20775;-71
2022/02/06 11:32:26;;;;;;;3.17;2.10;;;5.70;99.90;;;;;;5076637;28;20205;-73
2022/02/06 11:34:53;;;;;;;2.57;1.90;;;5.70;99.90;;;;;;5076191;28;20228;-72
2022/02/06 11:46:13;;;;;;;2.57;2.37;;;5.70;99.90;;;;;;5066913;28;20227;-73
2022/02/06 11:48:42;;;;;;;4.87;2.77;;;5.70;99.90;;;;;;5076944;28;20193;-73
2022/02/06 11:51:10;;;;;;;4.53;2.70;;;5.70;99.90;;;;;;5076436;28;20201;-73
2022/02/06 11:53:38;;;;;;;2.30;2.10;;;5.70;99.90;;;;;;5072790;28;20205;-72
2022/02/06 11:56:21;;;;;;;3.60;2.77;;;5.70;99.90;;;;;;5075903;28;20225;-72
2022/02/06 11:58:49;;;;;;;2.80;2.33;;;5.70;99.90;;;;;;5075248;28;20212;-73
2022/02/06 12:01:31;;;;;;;3.87;2.20;;;5.70;99.90;;;;;;5074854;28;20297;-71
2022/02/06 12:04:06;;;;;;;2.97;2.43;;;5.70;99.90;;;;;;5075419;28;20204;-72
2022/02/06 12:06:54;;;;;;;2.83;2.20;;;5.70;99.90;;;;;;5075304;28;20217;-71
2022/02/06 12:09:23;;;;;;;3.10;2.30;;;5.80;99.90;;;;;;5075746;28;20569;-71
2022/02/06 12:12:21;;;;;;;3.67;2.37;;;5.80;99.90;;;;;;5075292;28;20382;-72
2022/02/06 12:15:09;;;;;;;3.57;2.20;;;5.80;99.90;;;;;;5075814;28;20250;-73
2022/02/06 12:18:10;;;;;;;4.80;2.30;;;5.80;99.90;;;;;;5075003;28;20204;-72
2022/02/06 12:20:48;;;;;;;2.60;2.33;;;5.80;99.90;;;;;;5075651;28;20884;-73
2022/02/06 12:23:35;;;;;;;4.07;2.57;;;5.80;99.90;;;;;;5079470;28;20694;-72
2022/02/06 12:26:03;;;;;;;4.77;2.70;;;5.80;99.90;;;;;;5076269;28;20217;-73
2022/02/06 12:28:32;;;;;;;4.43;2.63;;;5.80;99.90;;;;;;5078389;28;20229;-71
2022/02/06 12:31:27;;;;;;;4.67;2.43;;;5.80;99.90;;;;;;5083747;28;20238;-72
2022/02/06 12:34:10;;;;;;;3.87;2.50;;;5.80;99.90;;;;;;5067404;28;20220;-73
2022/02/06 12:37:07;;;;;;;2.70;2.30;;;5.80;99.90;;;;;;5078993;28;20193;-73
2022/02/06 12:39:36;;;;;;;2.57;2.37;;;5.80;99.90;;;;;;5076044;28;20604;-73
2022/02/06 12:42:07;;;;;;;2.60;2.30;;;5.90;99.90;;;;;;5082214;28;20629;-72
2022/02/06 12:44:36;;;;;;;3.83;2.73;;;5.90;99.90;;;;;;5081301;28;20272;-70
2022/02/06 12:47:07;;;;;;;3.20;2.40;;;5.90;99.90;;;;;;5074723;28;20232;-73
2022/02/06 12:49:38;;;;;;;3.17;2.50;;;5.90;99.90;;;;;;5076496;28;20201;-74
2022/02/06 12:52:06;;;;;;;2.67;2.27;;;5.90;99.90;;;;;;5076703;28;20658;-72
2022/02/06 12:54:35;;;;;;;3.07;2.60;;;5.90;99.90;;;;;;5081883;28;20208;-73
2022/02/06 12:57:02;;;;;;;5.20;2.10;;;5.80;99.90;;;;;;5075301;28;20252;-72
2022/02/06 12:59:32;;;;;;;2.60;2.30;;;5.80;99.90;;;;;;5076225;28;20201;-72
2022/02/06 13:02:00;;;;;;;3.23;2.27;;;5.70;99.90;;;;;;5076616;28;20273;-72
2022/02/06 13:04:31;;;;;;;3.37;2.30;;;5.70;99.90;;;;;;5075334;28;20650;-72
2022/02/06 13:07:03;;;;;;;2.87;2.27;;;5.70;99.90;;;;;;5074992;28;20209;-71
2022/02/06 13:09:35;;;;;;;4.03;2.50;;;5.60;99.90;;;;;;5068487;28;20221;-74
2022/02/06 13:12:09;;;;;;;3.63;2.63;;;5.50;99.90;;;;;;5074660;28;20232;-73
2022/02/06 13:17:29;;;;;;;3.20;2.60;;;5.60;99.90;;;;;;5071628;28;20303;-73
2022/02/06 13:20:10;;;;;;;3.07;2.63;;;5.40;99.90;;;;;;5073831;28;20227;-70
2022/02/06 13:22:50;;;;;;;3.00;2.43;;;5.40;99.90;;;;;;5073550;28;20288;-71
2022/02/06 13:28:31;;;;;;;4.33;2.67;;;5.50;99.90;;;;;;5053040;28;20465;-70
2022/02/06 13:31:16;;;;;;;3.53;2.53;;;5.40;99.90;;;;;;5074761;28;20205;-71
2022/02/06 13:33:53;;;;;;;2.57;2.30;;;5.40;99.90;;;;;;5064966;28;20217;-71
2022/02/06 13:36:31;;;;;;;2.77;2.20;;;5.40;99.90;;;;;;5075840;28;20209;-72
2022/02/06 13:39:05;;;;;;;3.37;2.47;;;5.50;99.90;;;;;;5076182;28;20292;-71
2022/02/06 13:41:32;;;;;;;3.90;2.37;;;5.50;99.90;;;;;;5079794;28;20649;-72
2022/02/06 13:44:00;;;;;;;2.97;2.33;;;5.50;99.90;;;;;;5081080;28;20231;-74
2022/02/06 13:46:30;;;;;;;3.67;2.27;;;5.50;99.90;;;;;;5075628;28;20200;-73
2022/02/06 13:48:58;;;;;;;4.20;2.33;;;5.50;99.90;;;;;;5075443;28;20213;-74
2022/02/06 13:51:26;;;;;;;3.40;2.30;;;5.50;99.90;;;;;;5087723;28;20292;-74
2022/02/06 13:53:55;;;;;;;3.57;2.40;;;5.50;99.90;;;;;;5074584;28;20217;-74
2022/02/06 13:56:25;;;;;;;2.60;2.37;;;5.50;99.90;;;;;;5073871;28;20260;-73
2022/02/06 13:59:01;;;;;;;3.57;2.20;;;5.50;99.90;;;;;;5075886;28;20229;-73
2022/02/06 14:01:39;;;;;;;2.90;2.43;;;5.50;99.90;;;;;;5072540;28;20632;-70
2022/02/06 14:04:07;;;;;;;3.73;3.30;;;5.50;99.90;;;;;;5070277;28;20208;-68
2022/02/06 14:06:39;;;;;;;3.27;2.60;;;5.50;99.90;;;;;;5070218;28;20676;-68
2022/02/06 14:09:11;;;;;;;4.50;2.70;;;5.50;99.90;;;;;;5073835;28;20198;-68
2022/02/06 14:11:57;;;;;;;3.97;2.60;;;5.50;99.90;;;;;;5064955;28;20274;-68
2022/02/06 14:14:25;;;;;;;3.27;2.43;;;5.50;99.90;;;;;;5071428;28;20650;-74
2022/02/06 14:16:54;;;;;;;3.30;2.43;;;5.50;99.90;;;;;;5071672;28;20225;-72
2022/02/06 14:19:35;;;;;;;4.00;2.37;;;5.40;99.90;;;;;;5079946;28;20284;-72
2022/02/06 14:22:03;;;;;;;2.97;2.33;;;5.40;99.90;;;;;;5070416;28;20211;-75
2022/02/06 14:24:30;;;;;;;3.30;2.20;;;5.40;99.90;;;;;;5070420;28;20240;-70
2022/02/06 14:27:03;;;;;;;3.37;2.27;;;5.40;99.90;;;;;;5072400;28;20552;-72
2022/02/06 14:29:30;;;;;;;2.80;2.37;;;5.40;99.90;;;;;;5075866;28;20228;-74
2022/02/06 14:32:10;;;;;;;2.67;2.37;;;5.40;99.90;;;;;;5072577;28;20573;-73
2022/02/06 14:34:36;;;;;;;3.70;2.50;;;5.40;99.90;;;;;;5072066;28;20236;-73
2022/02/06 14:37:10;;;;;;;3.00;2.53;;;5.40;99.90;;;;;;5073213;28;20279;-71
2022/02/06 14:39:53;;;;;;;3.20;2.23;;;5.40;99.90;;;;;;5072940;28;20248;-75
2022/02/06 14:42:22;;;;;;;3.30;2.50;;;5.40;99.90;;;;;;5072157;28;20208;-71
2022/02/06 14:44:49;;;;;;;3.33;2.60;;;5.40;99.90;;;;;;5073837;28;20213;-71
2022/02/06 14:47:16;;;;;;;2.57;2.37;;;5.40;99.90;;;;;;5070741;28;20205;-74
2022/02/06 14:49:43;;;;;;;3.13;1.87;;;5.40;99.90;;;;;;5079567;28;20224;-74
2022/02/06 14:52:10;;;;;;;3.40;2.50;;;5.40;99.90;;;;;;5073961;28;20296;-73
2022/02/06 14:54:42;;;;;;;3.47;2.47;;;5.40;99.90;;;;;;5068015;28;20205;-73
2022/02/06 14:57:10;;;;;;;4.07;2.50;;;5.40;99.90;;;;;;5074892;28;20256;-75
2022/02/06 14:59:39;;;;;;;2.60;2.00;;;5.40;99.90;;;;;;5064510;28;20489;-73
2022/02/06 15:02:08;;;;;;;3.10;2.30;;;5.40;99.90;;;;;;5074383;28;20437;-71
2022/02/06 15:04:35;;;;;;;3.73;2.70;;;5.40;99.90;;;;;;5070231;28;20534;-73
2022/02/06 15:07:02;;;;;;;3.57;2.63;;;5.50;99.90;;;;;;5074650;28;20237;-73